createdAt,value
2022-09-10T00:12:58.502Z,100177.42
2022-09-10T00:27:49.746Z,100188.88
2022-09-10T00:42:41.323Z,100187.11
2022-09-10T00:57:32.736Z,100175.21
2022-09-10T01:12:51.629Z,100159.52
2022-09-10T01:27:49.085Z,100152.08
2022-09-10T01:42:40.872Z,100160.53
2022-09-10T01:57:39.536Z,100160.78
2022-09-10T02:12:35.003Z,100162.73
2022-09-10T02:27:25.934Z,100159.37
2022-09-10T02:42:18.834Z,100156.42
2022-09-10T02:57:12.334Z,100142.79
2022-09-10T03:12:03.991Z,100143.72
2022-09-10T03:26:55.473Z,100133.10
2022-09-10T03:41:47.009Z,100145.53
2022-09-10T03:56:39.287Z,100153.78
2022-09-10T04:11:32.060Z,100155.62
2022-09-10T04:26:23.714Z,100166.64
2022-09-10T04:41:15.599Z,100176.77
2022-09-10T04:56:07.441Z,100178.75
2022-09-10T05:10:58.883Z,100194.38
2022-09-10T05:25:51.497Z,100193.66
2022-09-10T05:40:44.574Z,100207.25
2022-09-10T05:55:36.253Z,100200.34
2022-09-10T06:10:32.605Z,100212.03
2022-09-10T06:25:19.287Z,100229.06
2022-09-10T06:40:11.940Z,100230.47
2022-09-10T06:55:02.476Z,100243.67
2022-09-10T07:24:46.009Z,100265.74
2022-09-10T07:39:38.481Z,100286.30
2022-09-10T07:54:32.046Z,100288.97
2022-09-10T08:09:25.354Z,100300.67
2022-09-10T08:24:17.802Z,100302.69
2022-09-10T08:39:14.486Z,100310.92
2022-09-10T08:54:01.568Z,100311.71
2022-09-10T09:24:12.203Z,100332.09
2022-09-10T09:38:49.966Z,100321.70
2022-09-10T09:53:46.305Z,100319.11
2022-09-10T10:08:39.978Z,100310.66
2022-09-10T10:53:53.111Z,100280.75
2022-09-10T11:08:56.983Z,100282.41
2022-09-10T11:23:46.958Z,100264.98
2022-09-10T11:39:08.282Z,100263.99
2022-09-10T11:54:06.258Z,100254.31
2022-09-10T12:23:59.195Z,100275.50
2022-09-10T12:39:18.238Z,100291.67
2022-09-10T12:54:32.372Z,100293.18
2022-09-10T13:09:29.086Z,100259.67
2022-09-10T13:24:35.166Z,100250.73
2022-09-10T13:39:42.584Z,100296.88
2022-09-10T13:54:36.339Z,100281.02
2022-09-10T14:09:28.473Z,100283.88
2022-09-10T14:24:28.471Z,100270.95
2022-09-10T14:39:24.804Z,100265.87
2022-09-10T14:54:16.931Z,100265.61
2022-09-10T15:09:08.551Z,100287.55
2022-09-10T15:23:59.491Z,100280.02
2022-09-10T15:38:53.382Z,100278.24
2022-09-10T15:53:44.822Z,100280.30
2022-09-10T16:08:36.572Z,100284.37
2022-09-10T16:23:27.525Z,100281.34
2022-09-10T16:38:19.711Z,100291.70
2022-09-10T16:53:12.174Z,100288.48
2022-09-10T17:08:02.958Z,100297.29
2022-09-10T17:22:53.700Z,100303.45
2022-09-10T17:37:44.536Z,100310.39
2022-09-10T17:52:34.752Z,100328.37
2022-09-10T18:07:26.230Z,100334.22
2022-09-10T18:22:17.638Z,100341.87
2022-09-10T18:37:14.489Z,100341.94
2022-09-10T18:52:00.691Z,100341.31
2022-09-10T19:06:52.130Z,100359.55
2022-09-10T19:21:43.601Z,100373.47
2022-09-10T19:36:35.423Z,100386.20
2022-09-10T19:51:26.424Z,100370.68
2022-09-10T20:06:17.582Z,100369.92
2022-09-10T20:21:17.898Z,100373.23
2022-09-10T20:36:14.116Z,100391.61
2022-09-10T20:51:05.250Z,100415.67
2022-09-10T21:05:56.477Z,100428.75
2022-09-10T21:20:48.226Z,100419.22
2022-09-10T21:35:39.423Z,100431.45
2022-09-10T21:50:31.281Z,100438.22
2022-09-10T22:05:22.262Z,100446.77
2022-09-10T22:20:13.736Z,100450.42
2022-09-10T22:35:28.792Z,100440.89
2022-09-10T22:50:13.533Z,100441.19
2022-09-10T23:05:07.691Z,100443.53
2022-09-10T23:34:52.722Z,100458.19
2022-09-10T23:49:44.335Z,100471.55
